sensor_id;sensor_type;location;lat;lon;timestamp;P1;durP1;ratioP1;P2;durP2;ratioP2
80653;SDS011;70020;45.524;10.240;2024-01-27T00:01:34;233.27;;;82.82;;
80653;SDS011;70020;45.524;10.240;2024-01-27T00:04:01;218.25;;;85.75;;
80653;SDS011;70020;45.524;10.240;2024-01-27T00:08:53;260.60;;;86.05;;
80653;SDS011;70020;45.524;10.240;2024-01-27T00:11:19;152.80;;;83.47;;
80653;SDS011;70020;45.524;10.240;2024-01-27T00:13:45;206.43;;;84.93;;
80653;SDS011;70020;45.524;10.240;2024-01-27T00:18:38;131.02;;;75.88;;
80653;SDS011;70020;45.524;10.240;2024-01-27T00:23:31;296.05;;;77.75;;
80653;SDS011;70020;45.524;10.240;2024-01-27T00:26:17;266.67;;;78.32;;
80653;SDS011;70020;45.524;10.240;2024-01-27T00:28:43;373.10;;;76.97;;
80653;SDS011;70020;45.524;10.240;2024-01-27T00:31:09;321.10;;;75.03;;
80653;SDS011;70020;45.524;10.240;2024-01-27T00:33:35;256.00;;;78.13;;
80653;SDS011;70020;45.524;10.240;2024-01-27T00:36:01;149.13;;;79.85;;
80653;SDS011;70020;45.524;10.240;2024-01-27T00:38:26;203.33;;;76.97;;
80653;SDS011;70020;45.524;10.240;2024-01-27T00:40:52;150.68;;;76.72;;
80653;SDS011;70020;45.524;10.240;2024-01-27T00:43:18;496.40;;;86.87;;
80653;SDS011;70020;45.524;10.240;2024-01-27T00:45:43;192.47;;;80.53;;
80653;SDS011;70020;45.524;10.240;2024-01-27T00:48:10;430.58;;;85.22;;
80653;SDS011;70020;45.524;10.240;2024-01-27T00:50:36;201.90;;;79.63;;
80653;SDS011;70020;45.524;10.240;2024-01-27T00:53:02;164.60;;;76.90;;
80653;SDS011;70020;45.524;10.240;2024-01-27T00:57:54;200.40;;;74.07;;
80653;SDS011;70020;45.524;10.240;2024-01-27T01:00:20;204.80;;;75.90;;
80653;SDS011;70020;45.524;10.240;2024-01-27T01:02:46;313.13;;;79.03;;
80653;SDS011;70020;45.524;10.240;2024-01-27T01:05:12;196.27;;;76.57;;
80653;SDS011;70020;45.524;10.240;2024-01-27T01:07:37;139.53;;;74.43;;
80653;SDS011;70020;45.524;10.240;2024-01-27T01:10:03;142.70;;;74.30;;
80653;SDS011;70020;45.524;10.240;2024-01-27T01:12:31;474.20;;;84.03;;
80653;SDS011;70020;45.524;10.240;2024-01-27T01:14:56;206.17;;;76.10;;
80653;SDS011;70020;45.524;10.240;2024-01-27T01:17:22;291.00;;;80.30;;
80653;SDS011;70020;45.524;10.240;2024-01-27T01:19:48;278.60;;;77.87;;
80653;SDS011;70020;45.524;10.240;2024-01-27T01:22:14;223.93;;;77.30;;
80653;SDS011;70020;45.524;10.240;2024-01-27T01:24:39;204.33;;;72.93;;
80653;SDS011;70020;45.524;10.240;2024-01-27T01:27:09;148.00;;;67.15;;
80653;SDS011;70020;45.524;10.240;2024-01-27T01:29:35;154.60;;;65.17;;
80653;SDS011;70020;45.524;10.240;2024-01-27T01:32:01;156.17;;;69.23;;
80653;SDS011;70020;45.524;10.240;2024-01-27T01:34:29;129.20;;;64.93;;
80653;SDS011;70020;45.524;10.240;2024-01-27T01:36:55;270.57;;;70.10;;
80653;SDS011;70020;45.524;10.240;2024-01-27T01:39:22;119.28;;;65.25;;
80653;SDS011;70020;45.524;10.240;2024-01-27T01:41:47;140.47;;;67.27;;
80653;SDS011;70020;45.524;10.240;2024-01-27T01:44:13;117.13;;;65.57;;
80653;SDS011;70020;45.524;10.240;2024-01-27T01:46:39;121.23;;;67.90;;
80653;SDS011;70020;45.524;10.240;2024-01-27T01:49:05;102.33;;;68.60;;
80653;SDS011;70020;45.524;10.240;2024-01-27T01:51:31;93.97;;;63.72;;
80653;SDS011;70020;45.524;10.240;2024-01-27T01:53:58;93.50;;;62.40;;
80653;SDS011;70020;45.524;10.240;2024-01-27T01:56:24;92.53;;;61.13;;
80653;SDS011;70020;45.524;10.240;2024-01-27T01:58:50;92.00;;;62.08;;
80653;SDS011;70020;45.524;10.240;2024-01-27T02:01:19;92.60;;;62.40;;
80653;SDS011;70020;45.524;10.240;2024-01-27T02:03:55;91.53;;;60.80;;
80653;SDS011;70020;45.524;10.240;2024-01-27T02:06:21;94.70;;;61.25;;
80653;SDS011;70020;45.524;10.240;2024-01-27T02:08:47;160.47;;;65.27;;
80653;SDS011;70020;45.524;10.240;2024-01-27T02:11:13;121.20;;;62.53;;
80653;SDS011;70020;45.524;10.240;2024-01-27T02:13:39;95.13;;;61.95;;
80653;SDS011;70020;45.524;10.240;2024-01-27T02:16:05;127.80;;;64.25;;
80653;SDS011;70020;45.524;10.240;2024-01-27T02:18:32;90.78;;;59.92;;
80653;SDS011;70020;45.524;10.240;2024-01-27T02:21:01;120.00;;;64.73;;
80653;SDS011;70020;45.524;10.240;2024-01-27T02:23:26;127.80;;;68.65;;
80653;SDS011;70020;45.524;10.240;2024-01-27T02:25:52;320.53;;;70.67;;
80653;SDS011;70020;45.524;10.240;2024-01-27T02:28:18;260.97;;;70.23;;
80653;SDS011;70020;45.524;10.240;2024-01-27T02:30:44;255.17;;;66.33;;
80653;SDS011;70020;45.524;10.240;2024-01-27T02:33:10;309.53;;;69.97;;
80653;SDS011;70020;45.524;10.240;2024-01-27T02:35:35;110.00;;;64.13;;
80653;SDS011;70020;45.524;10.240;2024-01-27T02:38:00;130.43;;;64.47;;
80653;SDS011;70020;45.524;10.240;2024-01-27T02:40:26;273.93;;;64.03;;
80653;SDS011;70020;45.524;10.240;2024-01-27T02:42:52;183.80;;;64.07;;
80653;SDS011;70020;45.524;10.240;2024-01-27T02:45:18;490.13;;;73.63;;
80653;SDS011;70020;45.524;10.240;2024-01-27T02:47:44;201.95;;;63.67;;
80653;SDS011;70020;45.524;10.240;2024-01-27T02:50:09;179.73;;;61.90;;
80653;SDS011;70020;45.524;10.240;2024-01-27T02:52:36;172.30;;;58.97;;
80653;SDS011;70020;45.524;10.240;2024-01-27T02:55:02;91.50;;;59.58;;
80653;SDS011;70020;45.524;10.240;2024-01-27T02:57:29;88.70;;;59.92;;
80653;SDS011;70020;45.524;10.240;2024-01-27T02:59:55;88.43;;;60.33;;
80653;SDS011;70020;45.524;10.240;2024-01-27T03:02:21;90.93;;;59.40;;
80653;SDS011;70020;45.524;10.240;2024-01-27T03:04:47;86.73;;;58.77;;
80653;SDS011;70020;45.524;10.240;2024-01-27T03:07:12;86.30;;;57.83;;
80653;SDS011;70020;45.524;10.240;2024-01-27T03:09:38;86.93;;;58.57;;
80653;SDS011;70020;45.524;10.240;2024-01-27T03:12:04;91.87;;;59.37;;
80653;SDS011;70020;45.524;10.240;2024-01-27T03:14:31;85.57;;;58.50;;
80653;SDS011;70020;45.524;10.240;2024-01-27T03:16:58;82.53;;;58.07;;
80653;SDS011;70020;45.524;10.240;2024-01-27T03:19:23;74.90;;;53.50;;
80653;SDS011;70020;45.524;10.240;2024-01-27T03:21:52;79.00;;;54.90;;
80653;SDS011;70020;45.524;10.240;2024-01-27T03:24:18;74.55;;;52.53;;
80653;SDS011;70020;45.524;10.240;2024-01-27T03:26:44;81.57;;;55.13;;
80653;SDS011;70020;45.524;10.240;2024-01-27T03:29:10;75.40;;;52.83;;
80653;SDS011;70020;45.524;10.240;2024-01-27T03:31:35;73.60;;;53.17;;
80653;SDS011;70020;45.524;10.240;2024-01-27T03:34:02;78.00;;;54.45;;
80653;SDS011;70020;45.524;10.240;2024-01-27T03:36:28;80.53;;;55.17;;
80653;SDS011;70020;45.524;10.240;2024-01-27T03:38:53;76.47;;;54.43;;
80653;SDS011;70020;45.524;10.240;2024-01-27T03:41:21;75.75;;;53.33;;
80653;SDS011;70020;45.524;10.240;2024-01-27T03:43:46;71.70;;;52.70;;
80653;SDS011;70020;45.524;10.240;2024-01-27T03:46:12;74.70;;;53.08;;
80653;SDS011;70020;45.524;10.240;2024-01-27T03:48:38;80.50;;;55.07;;
80653;SDS011;70020;45.524;10.240;2024-01-27T03:51:04;84.07;;;57.40;;
80653;SDS011;70020;45.524;10.240;2024-01-27T03:53:30;78.25;;;55.10;;
80653;SDS011;70020;45.524;10.240;2024-01-27T03:55:56;80.90;;;57.40;;
80653;SDS011;70020;45.524;10.240;2024-01-27T03:58:29;77.68;;;53.35;;
80653;SDS011;70020;45.524;10.240;2024-01-27T04:03:22;81.35;;;53.38;;
80653;SDS011;70020;45.524;10.240;2024-01-27T04:05:47;82.53;;;54.50;;
80653;SDS011;70020;45.524;10.240;2024-01-27T04:08:12;84.40;;;55.00;;
80653;SDS011;70020;45.524;10.240;2024-01-27T04:10:38;81.47;;;55.17;;
80653;SDS011;70020;45.524;10.240;2024-01-27T04:13:04;82.03;;;54.67;;
80653;SDS011;70020;45.524;10.240;2024-01-27T04:15:30;84.70;;;57.47;;
80653;SDS011;70020;45.524;10.240;2024-01-27T04:18:02;83.68;;;55.72;;
80653;SDS011;70020;45.524;10.240;2024-01-27T04:20:28;87.53;;;57.83;;
80653;SDS011;70020;45.524;10.240;2024-01-27T04:22:54;83.10;;;55.53;;
80653;SDS011;70020;45.524;10.240;2024-01-27T04:25:20;83.38;;;55.40;;
80653;SDS011;70020;45.524;10.240;2024-01-27T04:27:47;83.57;;;55.72;;
80653;SDS011;70020;45.524;10.240;2024-01-27T04:30:13;83.70;;;56.08;;
80653;SDS011;70020;45.524;10.240;2024-01-27T04:35:08;86.53;;;56.57;;
80653;SDS011;70020;45.524;10.240;2024-01-27T04:37:34;85.45;;;55.20;;
80653;SDS011;70020;45.524;10.240;2024-01-27T04:40:00;84.40;;;55.53;;
80653;SDS011;70020;45.524;10.240;2024-01-27T04:42:25;82.50;;;52.97;;
80653;SDS011;70020;45.524;10.240;2024-01-27T04:44:51;81.88;;;54.97;;
80653;SDS011;70020;45.524;10.240;2024-01-27T04:47:18;82.53;;;56.03;;
80653;SDS011;70020;45.524;10.240;2024-01-27T04:49:43;87.63;;;56.80;;
80653;SDS011;70020;45.524;10.240;2024-01-27T04:52:09;88.33;;;57.77;;
80653;SDS011;70020;45.524;10.240;2024-01-27T04:54:36;84.38;;;56.90;;
80653;SDS011;70020;45.524;10.240;2024-01-27T04:57:03;82.88;;;55.13;;
80653;SDS011;70020;45.524;10.240;2024-01-27T04:59:28;89.27;;;58.63;;
80653;SDS011;70020;45.524;10.240;2024-01-27T05:01:54;84.20;;;56.63;;
80653;SDS011;70020;45.524;10.240;2024-01-27T05:04:20;82.40;;;55.60;;
80653;SDS011;70020;45.524;10.240;2024-01-27T05:06:46;85.70;;;57.33;;
80653;SDS011;70020;45.524;10.240;2024-01-27T05:09:12;87.57;;;58.03;;
80653;SDS011;70020;45.524;10.240;2024-01-27T05:11:37;88.40;;;57.97;;
80653;SDS011;70020;45.524;10.240;2024-01-27T05:14:03;85.83;;;58.50;;
80653;SDS011;70020;45.524;10.240;2024-01-27T05:16:29;92.60;;;60.93;;
80653;SDS011;70020;45.524;10.240;2024-01-27T05:18:54;85.63;;;56.10;;
80653;SDS011;70020;45.524;10.240;2024-01-27T05:21:20;83.60;;;56.40;;
80653;SDS011;70020;45.524;10.240;2024-01-27T05:23:46;85.47;;;58.27;;
80653;SDS011;70020;45.524;10.240;2024-01-27T05:26:11;88.37;;;58.00;;
80653;SDS011;70020;45.524;10.240;2024-01-27T05:28:37;84.87;;;56.40;;
80653;SDS011;70020;45.524;10.240;2024-01-27T05:31:06;83.57;;;56.65;;
80653;SDS011;70020;45.524;10.240;2024-01-27T05:33:32;89.80;;;57.72;;
80653;SDS011;70020;45.524;10.240;2024-01-27T05:35:58;93.43;;;58.60;;
80653;SDS011;70020;45.524;10.240;2024-01-27T05:38:24;87.57;;;56.22;;
80653;SDS011;70020;45.524;10.240;2024-01-27T05:43:19;87.93;;;57.07;;
80653;SDS011;70020;45.524;10.240;2024-01-27T05:45:44;86.72;;;56.25;;
80653;SDS011;70020;45.524;10.240;2024-01-27T05:50:36;87.60;;;56.20;;
80653;SDS011;70020;45.524;10.240;2024-01-27T05:53:02;90.50;;;56.67;;
80653;SDS011;70020;45.524;10.240;2024-01-27T05:55:28;89.13;;;59.30;;
80653;SDS011;70020;45.524;10.240;2024-01-27T05:57:54;87.22;;;57.85;;
80653;SDS011;70020;45.524;10.240;2024-01-27T06:00:21;87.63;;;58.55;;
80653;SDS011;70020;45.524;10.240;2024-01-27T06:02:47;86.37;;;58.70;;
80653;SDS011;70020;45.524;10.240;2024-01-27T06:05:13;85.40;;;59.13;;
80653;SDS011;70020;45.524;10.240;2024-01-27T06:07:38;82.03;;;56.10;;
80653;SDS011;70020;45.524;10.240;2024-01-27T06:10:06;82.63;;;57.60;;
80653;SDS011;70020;45.524;10.240;2024-01-27T06:12:33;85.47;;;56.60;;
80653;SDS011;70020;45.524;10.240;2024-01-27T06:14:59;81.13;;;55.83;;
80653;SDS011;70020;45.524;10.240;2024-01-27T06:17:25;85.93;;;57.77;;
80653;SDS011;70020;45.524;10.240;2024-01-27T06:19:51;84.43;;;54.80;;
80653;SDS011;70020;45.524;10.240;2024-01-27T06:22:17;83.50;;;56.50;;
80653;SDS011;70020;45.524;10.240;2024-01-27T06:24:43;78.17;;;53.57;;
80653;SDS011;70020;45.524;10.240;2024-01-27T06:27:12;84.43;;;55.33;;
80653;SDS011;70020;45.524;10.240;2024-01-27T06:29:38;88.53;;;57.97;;
80653;SDS011;70020;45.524;10.240;2024-01-27T06:32:05;82.57;;;54.72;;
80653;SDS011;70020;45.524;10.240;2024-01-27T06:34:31;82.83;;;54.73;;
80653;SDS011;70020;45.524;10.240;2024-01-27T06:36:57;82.60;;;56.38;;
80653;SDS011;70020;45.524;10.240;2024-01-27T06:39:23;87.17;;;56.63;;
80653;SDS011;70020;45.524;10.240;2024-01-27T06:41:48;82.20;;;54.93;;
80653;SDS011;70020;45.524;10.240;2024-01-27T06:44:14;79.77;;;54.57;;
80653;SDS011;70020;45.524;10.240;2024-01-27T06:46:40;79.60;;;53.70;;
80653;SDS011;70020;45.524;10.240;2024-01-27T06:49:06;86.13;;;56.00;;
80653;SDS011;70020;45.524;10.240;2024-01-27T06:51:32;83.85;;;55.38;;
80653;SDS011;70020;45.524;10.240;2024-01-27T06:54:00;83.03;;;54.23;;
80653;SDS011;70020;45.524;10.240;2024-01-27T06:56:26;82.35;;;57.08;;
80653;SDS011;70020;45.524;10.240;2024-01-27T06:58:52;83.43;;;56.07;;
80653;SDS011;70020;45.524;10.240;2024-01-27T07:01:18;79.93;;;54.20;;
80653;SDS011;70020;45.524;10.240;2024-01-27T07:03:43;89.20;;;56.93;;
80653;SDS011;70020;45.524;10.240;2024-01-27T07:06:09;83.57;;;56.80;;
80653;SDS011;70020;45.524;10.240;2024-01-27T07:08:35;83.23;;;55.70;;
80653;SDS011;70020;45.524;10.240;2024-01-27T07:11:02;93.35;;;59.40;;
80653;SDS011;70020;45.524;10.240;2024-01-27T07:15:55;78.90;;;53.83;;
80653;SDS011;70020;45.524;10.240;2024-01-27T07:18:21;91.70;;;58.65;;
80653;SDS011;70020;45.524;10.240;2024-01-27T07:20:47;90.33;;;57.40;;
80653;SDS011;70020;45.524;10.240;2024-01-27T07:23:13;81.40;;;55.90;;
80653;SDS011;70020;45.524;10.240;2024-01-27T07:25:39;83.30;;;55.47;;
80653;SDS011;70020;45.524;10.240;2024-01-27T07:28:04;81.30;;;53.40;;
80653;SDS011;70020;45.524;10.240;2024-01-27T07:30:30;81.83;;;53.50;;
80653;SDS011;70020;45.524;10.240;2024-01-27T07:32:56;86.93;;;53.90;;
80653;SDS011;70020;45.524;10.240;2024-01-27T07:35:22;83.83;;;55.13;;
80653;SDS011;70020;45.524;10.240;2024-01-27T07:37:47;89.63;;;56.03;;
80653;SDS011;70020;45.524;10.240;2024-01-27T07:40:13;91.20;;;55.93;;
80653;SDS011;70020;45.524;10.240;2024-01-27T07:42:39;88.60;;;54.33;;
80653;SDS011;70020;45.524;10.240;2024-01-27T07:45:05;86.97;;;54.10;;
80653;SDS011;70020;45.524;10.240;2024-01-27T07:47:34;90.68;;;55.13;;
80653;SDS011;70020;45.524;10.240;2024-01-27T07:50:00;85.60;;;54.17;;
80653;SDS011;70020;45.524;10.240;2024-01-27T07:52:26;85.95;;;54.80;;
80653;SDS011;70020;45.524;10.240;2024-01-27T07:54:52;88.70;;;55.63;;
80653;SDS011;70020;45.524;10.240;2024-01-27T07:57:19;88.40;;;54.63;;
80653;SDS011;70020;45.524;10.240;2024-01-27T07:59:45;91.90;;;56.15;;
80653;SDS011;70020;45.524;10.240;2024-01-27T08:02:11;89.72;;;55.88;;
80653;SDS011;70020;45.524;10.240;2024-01-27T08:04:38;85.07;;;54.83;;
80653;SDS011;70020;45.524;10.240;2024-01-27T08:09:34;81.72;;;52.97;;
80653;SDS011;70020;45.524;10.240;2024-01-27T08:12:01;83.40;;;54.40;;
80653;SDS011;70020;45.524;10.240;2024-01-27T08:14:29;86.03;;;56.08;;
80653;SDS011;70020;45.524;10.240;2024-01-27T08:16:58;87.97;;;56.88;;
80653;SDS011;70020;45.524;10.240;2024-01-27T08:19:24;87.30;;;57.25;;
80653;SDS011;70020;45.524;10.240;2024-01-27T08:21:50;89.00;;;56.85;;
80653;SDS011;70020;45.524;10.240;2024-01-27T08:24:16;87.97;;;57.28;;
80653;SDS011;70020;45.524;10.240;2024-01-27T08:29:09;91.05;;;54.53;;
80653;SDS011;70020;45.524;10.240;2024-01-27T08:31:35;89.13;;;58.33;;
80653;SDS011;70020;45.524;10.240;2024-01-27T08:34:02;87.15;;;57.25;;
80653;SDS011;70020;45.524;10.240;2024-01-27T08:36:31;88.75;;;56.83;;
80653;SDS011;70020;45.524;10.240;2024-01-27T08:38:57;86.65;;;55.72;;
80653;SDS011;70020;45.524;10.240;2024-01-27T08:41:23;90.13;;;57.90;;
80653;SDS011;70020;45.524;10.240;2024-01-27T08:43:49;90.27;;;57.27;;
80653;SDS011;70020;45.524;10.240;2024-01-27T08:46:15;95.00;;;61.27;;
80653;SDS011;70020;45.524;10.240;2024-01-27T08:48:42;90.93;;;58.45;;
80653;SDS011;70020;45.524;10.240;2024-01-27T08:51:08;90.53;;;59.33;;
80653;SDS011;70020;45.524;10.240;2024-01-27T08:53:35;92.50;;;59.72;;
80653;SDS011;70020;45.524;10.240;2024-01-27T08:56:02;90.05;;;57.88;;
80653;SDS011;70020;45.524;10.240;2024-01-27T08:58:29;95.63;;;60.22;;
80653;SDS011;70020;45.524;10.240;2024-01-27T09:00:55;98.10;;;61.45;;
80653;SDS011;70020;45.524;10.240;2024-01-27T09:03:21;92.20;;;58.93;;
80653;SDS011;70020;45.524;10.240;2024-01-27T09:05:47;99.65;;;62.47;;
80653;SDS011;70020;45.524;10.240;2024-01-27T09:08:12;104.43;;;61.47;;
80653;SDS011;70020;45.524;10.240;2024-01-27T09:10:38;98.30;;;60.87;;
80653;SDS011;70020;45.524;10.240;2024-01-27T09:13:04;104.10;;;62.90;;
80653;SDS011;70020;45.524;10.240;2024-01-27T09:15:30;99.00;;;59.90;;
80653;SDS011;70020;45.524;10.240;2024-01-27T09:17:56;104.82;;;63.78;;
80653;SDS011;70020;45.524;10.240;2024-01-27T09:20:22;103.68;;;63.05;;
80653;SDS011;70020;45.524;10.240;2024-01-27T09:22:48;104.60;;;63.10;;
80653;SDS011;70020;45.524;10.240;2024-01-27T09:25:15;107.20;;;64.13;;
80653;SDS011;70020;45.524;10.240;2024-01-27T09:27:41;101.57;;;63.70;;
80653;SDS011;70020;45.524;10.240;2024-01-27T09:30:07;97.85;;;64.10;;
80653;SDS011;70020;45.524;10.240;2024-01-27T09:32:34;99.60;;;64.82;;
80653;SDS011;70020;45.524;10.240;2024-01-27T09:34:59;100.00;;;62.33;;
80653;SDS011;70020;45.524;10.240;2024-01-27T09:37:28;101.57;;;63.95;;
80653;SDS011;70020;45.524;10.240;2024-01-27T09:39:53;99.73;;;66.10;;
80653;SDS011;70020;45.524;10.240;2024-01-27T09:42:20;98.88;;;64.32;;
80653;SDS011;70020;45.524;10.240;2024-01-27T09:44:49;97.35;;;62.55;;
80653;SDS011;70020;45.524;10.240;2024-01-27T09:47:15;100.68;;;64.38;;
80653;SDS011;70020;45.524;10.240;2024-01-27T09:49:42;100.18;;;63.80;;
80653;SDS011;70020;45.524;10.240;2024-01-27T09:52:08;104.40;;;64.97;;
80653;SDS011;70020;45.524;10.240;2024-01-27T09:54:34;104.72;;;65.30;;
80653;SDS011;70020;45.524;10.240;2024-01-27T09:57:01;102.30;;;66.18;;
80653;SDS011;70020;45.524;10.240;2024-01-27T09:59:27;102.15;;;64.35;;
80653;SDS011;70020;45.524;10.240;2024-01-27T10:01:53;104.07;;;65.32;;
80653;SDS011;70020;45.524;10.240;2024-01-27T10:04:21;102.15;;;62.63;;
80653;SDS011;70020;45.524;10.240;2024-01-27T10:06:48;102.43;;;63.40;;
80653;SDS011;70020;45.524;10.240;2024-01-27T10:09:16;97.18;;;63.90;;
80653;SDS011;70020;45.524;10.240;2024-01-27T10:11:46;111.03;;;66.30;;
80653;SDS011;70020;45.524;10.240;2024-01-27T10:14:15;105.82;;;64.13;;
80653;SDS011;70020;45.524;10.240;2024-01-27T10:16:44;104.97;;;66.30;;
80653;SDS011;70020;45.524;10.240;2024-01-27T10:19:17;116.03;;;68.15;;
80653;SDS011;70020;45.524;10.240;2024-01-27T10:21:44;118.22;;;68.60;;
80653;SDS011;70020;45.524;10.240;2024-01-27T10:24:10;110.15;;;64.82;;
80653;SDS011;70020;45.524;10.240;2024-01-27T10:26:36;121.77;;;70.67;;
80653;SDS011;70020;45.524;10.240;2024-01-27T10:29:02;122.40;;;69.53;;
80653;SDS011;70020;45.524;10.240;2024-01-27T10:31:28;114.27;;;70.77;;
80653;SDS011;70020;45.524;10.240;2024-01-27T10:33:54;124.30;;;69.55;;
80653;SDS011;70020;45.524;10.240;2024-01-27T10:36:24;116.75;;;68.35;;
80653;SDS011;70020;45.524;10.240;2024-01-27T10:38:51;109.20;;;66.25;;
80653;SDS011;70020;45.524;10.240;2024-01-27T10:41:21;109.75;;;65.68;;
80653;SDS011;70020;45.524;10.240;2024-01-27T10:43:49;105.75;;;66.13;;
80653;SDS011;70020;45.524;10.240;2024-01-27T10:46:18;102.18;;;62.03;;
80653;SDS011;70020;45.524;10.240;2024-01-27T10:48:51;100.85;;;63.20;;
80653;SDS011;70020;45.524;10.240;2024-01-27T10:51:18;103.07;;;62.75;;
80653;SDS011;70020;45.524;10.240;2024-01-27T10:53:51;109.45;;;65.15;;
80653;SDS011;70020;45.524;10.240;2024-01-27T10:56:19;104.80;;;64.32;;
80653;SDS011;70020;45.524;10.240;2024-01-27T10:58:46;101.45;;;63.08;;
80653;SDS011;70020;45.524;10.240;2024-01-27T11:01:15;107.82;;;63.22;;
80653;SDS011;70020;45.524;10.240;2024-01-27T11:03:44;114.38;;;63.35;;
80653;SDS011;70020;45.524;10.240;2024-01-27T11:06:12;107.03;;;61.38;;
80653;SDS011;70020;45.524;10.240;2024-01-27T11:08:39;105.40;;;65.13;;
80653;SDS011;70020;45.524;10.240;2024-01-27T11:11:04;105.70;;;64.70;;
80653;SDS011;70020;45.524;10.240;2024-01-27T11:13:30;113.20;;;67.47;;
80653;SDS011;70020;45.524;10.240;2024-01-27T11:15:58;105.75;;;65.47;;
80653;SDS011;70020;45.524;10.240;2024-01-27T11:18:24;100.13;;;64.40;;
80653;SDS011;70020;45.524;10.240;2024-01-27T11:20:53;109.60;;;69.00;;
80653;SDS011;70020;45.524;10.240;2024-01-27T11:23:19;117.38;;;71.40;;
80653;SDS011;70020;45.524;10.240;2024-01-27T11:25:45;107.03;;;69.75;;
80653;SDS011;70020;45.524;10.240;2024-01-27T11:28:15;117.40;;;71.43;;
80653;SDS011;70020;45.524;10.240;2024-01-27T11:30:45;119.40;;;75.97;;
80653;SDS011;70020;45.524;10.240;2024-01-27T11:33:12;113.68;;;72.65;;
80653;SDS011;70020;45.524;10.240;2024-01-27T11:35:38;118.80;;;75.43;;
80653;SDS011;70020;45.524;10.240;2024-01-27T11:38:04;117.33;;;72.93;;
80653;SDS011;70020;45.524;10.240;2024-01-27T11:40:30;135.27;;;76.17;;
80653;SDS011;70020;45.524;10.240;2024-01-27T11:42:56;121.53;;;75.67;;
80653;SDS011;70020;45.524;10.240;2024-01-27T11:45:22;124.82;;;77.18;;
80653;SDS011;70020;45.524;10.240;2024-01-27T11:47:48;123.10;;;78.03;;
80653;SDS011;70020;45.524;10.240;2024-01-27T11:50:14;132.32;;;80.47;;
80653;SDS011;70020;45.524;10.240;2024-01-27T11:52:44;120.25;;;77.40;;
80653;SDS011;70020;45.524;10.240;2024-01-27T11:55:09;122.63;;;75.47;;
80653;SDS011;70020;45.524;10.240;2024-01-27T11:57:35;113.93;;;74.93;;
80653;SDS011;70020;45.524;10.240;2024-01-27T12:00:01;116.37;;;75.00;;
80653;SDS011;70020;45.524;10.240;2024-01-27T12:02:27;115.95;;;75.38;;
80653;SDS011;70020;45.524;10.240;2024-01-27T12:04:53;115.50;;;74.10;;
80653;SDS011;70020;45.524;10.240;2024-01-27T12:07:20;263.17;;;79.22;;
80653;SDS011;70020;45.524;10.240;2024-01-27T12:09:46;116.43;;;75.43;;
80653;SDS011;70020;45.524;10.240;2024-01-27T12:12:13;124.78;;;77.90;;
80653;SDS011;70020;45.524;10.240;2024-01-27T12:14:46;121.20;;;76.50;;
80653;SDS011;70020;45.524;10.240;2024-01-27T12:17:14;116.28;;;75.68;;
80653;SDS011;70020;45.524;10.240;2024-01-27T12:19:45;116.20;;;72.18;;
80653;SDS011;70020;45.524;10.240;2024-01-27T12:22:23;109.63;;;72.53;;
80653;SDS011;70020;45.524;10.240;2024-01-27T12:24:51;119.30;;;72.75;;
80653;SDS011;70020;45.524;10.240;2024-01-27T12:27:17;117.03;;;73.97;;
80653;SDS011;70020;45.524;10.240;2024-01-27T12:29:42;107.50;;;71.60;;
80653;SDS011;70020;45.524;10.240;2024-01-27T12:32:08;107.70;;;70.13;;
80653;SDS011;70020;45.524;10.240;2024-01-27T12:34:41;103.50;;;68.85;;
80653;SDS011;70020;45.524;10.240;2024-01-27T12:37:11;118.32;;;69.57;;
80653;SDS011;70020;45.524;10.240;2024-01-27T12:39:37;110.13;;;70.25;;
80653;SDS011;70020;45.524;10.240;2024-01-27T12:42:03;103.90;;;66.53;;
80653;SDS011;70020;45.524;10.240;2024-01-27T12:46:55;101.82;;;67.32;;
80653;SDS011;70020;45.524;10.240;2024-01-27T12:49:22;109.72;;;67.90;;
80653;SDS011;70020;45.524;10.240;2024-01-27T12:51:48;107.18;;;68.35;;
80653;SDS011;70020;45.524;10.240;2024-01-27T12:54:13;100.43;;;68.10;;
80653;SDS011;70020;45.524;10.240;2024-01-27T12:56:39;107.43;;;67.47;;
80653;SDS011;70020;45.524;10.240;2024-01-27T12:59:05;104.33;;;66.53;;
80653;SDS011;70020;45.524;10.240;2024-01-27T13:01:31;104.35;;;68.20;;
80653;SDS011;70020;45.524;10.240;2024-01-27T13:03:57;198.95;;;118.00;;
80653;SDS011;70020;45.524;10.240;2024-01-27T13:06:23;153.17;;;90.20;;
80653;SDS011;70020;45.524;10.240;2024-01-27T13:08:49;113.10;;;69.75;;
80653;SDS011;70020;45.524;10.240;2024-01-27T13:11:15;110.13;;;65.88;;
80653;SDS011;70020;45.524;10.240;2024-01-27T13:13:41;100.90;;;66.60;;
80653;SDS011;70020;45.524;10.240;2024-01-27T13:16:06;101.00;;;64.13;;
80653;SDS011;70020;45.524;10.240;2024-01-27T13:18:32;378.63;;;182.37;;
80653;SDS011;70020;45.524;10.240;2024-01-27T13:20:58;129.25;;;77.28;;
80653;SDS011;70020;45.524;10.240;2024-01-27T13:23:24;107.23;;;66.60;;
80653;SDS011;70020;45.524;10.240;2024-01-27T13:25:50;105.67;;;67.13;;
80653;SDS011;70020;45.524;10.240;2024-01-27T13:28:15;106.43;;;67.43;;
80653;SDS011;70020;45.524;10.240;2024-01-27T13:30:41;106.43;;;68.47;;
80653;SDS011;70020;45.524;10.240;2024-01-27T13:33:07;107.40;;;66.20;;
80653;SDS011;70020;45.524;10.240;2024-01-27T13:35:33;112.47;;;68.28;;
80653;SDS011;70020;45.524;10.240;2024-01-27T13:37:59;110.43;;;69.93;;
80653;SDS011;70020;45.524;10.240;2024-01-27T13:40:25;105.10;;;67.93;;
80653;SDS011;70020;45.524;10.240;2024-01-27T13:42:50;111.50;;;68.97;;
80653;SDS011;70020;45.524;10.240;2024-01-27T13:45:17;114.60;;;71.32;;
80653;SDS011;70020;45.524;10.240;2024-01-27T13:47:43;112.00;;;69.90;;
80653;SDS011;70020;45.524;10.240;2024-01-27T13:50:09;111.60;;;69.90;;
80653;SDS011;70020;45.524;10.240;2024-01-27T13:52:36;108.03;;;70.00;;
80653;SDS011;70020;45.524;10.240;2024-01-27T13:55:02;101.63;;;63.07;;
80653;SDS011;70020;45.524;10.240;2024-01-27T13:57:28;98.20;;;60.80;;
80653;SDS011;70020;45.524;10.240;2024-01-27T13:59:54;98.95;;;61.33;;
80653;SDS011;70020;45.524;10.240;2024-01-27T14:02:20;98.65;;;63.75;;
80653;SDS011;70020;45.524;10.240;2024-01-27T14:04:49;100.17;;;62.17;;
80653;SDS011;70020;45.524;10.240;2024-01-27T14:07:15;95.65;;;60.88;;
80653;SDS011;70020;45.524;10.240;2024-01-27T14:09:41;100.28;;;60.83;;
80653;SDS011;70020;45.524;10.240;2024-01-27T14:12:09;91.75;;;58.80;;
80653;SDS011;70020;45.524;10.240;2024-01-27T14:14:34;89.40;;;54.63;;
80653;SDS011;70020;45.524;10.240;2024-01-27T14:17:03;87.72;;;51.40;;
80653;SDS011;70020;45.524;10.240;2024-01-27T14:19:29;93.13;;;55.05;;
80653;SDS011;70020;45.524;10.240;2024-01-27T14:21:55;73.70;;;46.17;;
80653;SDS011;70020;45.524;10.240;2024-01-27T14:24:24;65.07;;;42.97;;
80653;SDS011;70020;45.524;10.240;2024-01-27T14:26:51;83.07;;;48.22;;
80653;SDS011;70020;45.524;10.240;2024-01-27T14:29:17;76.88;;;49.15;;